Terminal Aerodrome Forecast
Issued by NWS Sioux Falls, SD

Home | Current Version | Previous Version | Graphics & Text | Print | Product List | Glossary Off
Versions: 1 2 3 4 5 6 7 8 9 10 11 12 13 14 15 16 17 18 19 20 21 22 23 24 25 26 27

000
FTUS43 KFSD 242320
TAFSUX
TAF
KSUX 242320Z 2500/2524 31011KT P6SM VCTS OVC050CB
     FM250300 33005KT 5SM SHRA VCTS BKN020 BKN040CB
     FM250900 35006KT 4SM SHRA VCTS OVC008CB
     FM251200 34009KT 4SM SHRA BR OVC008
     FM251800 34009KT P6SM -SHRA OVC008=

USA.gov is the U.S. government's official web portal to all federal, state and local government web resources and services.